KMPZ/MPZ METAR and TAF weather

Enter ICAO airport designator
Station Type Date Time Source
KMPZ METAR 2022/11/30 16:55 UTC NOAA

KMPZ 301655Z AUTO 29014G26KT 10SM CLR M02/M08 A3023 RMK AO2


Station Type Date Time Source
KMPZ Decoded METAR 2022/11/30 16:55 UTC NOAA

Mount Pleasant, Mount Pleasant Municipal Airport, IA, United States (KMPZ) 40-56-48N 091-30-40W
Nov 30, 2022 - 11:55 AM EST / 2022.11.30 1655 UTC
Wind: from the WNW (290 degrees) at 16 MPH (14 KT) gusting to 30 MPH (26 KT):0
Visibility: 10 mile(s):0
Sky conditions: clear
Temperature: 28 F (-2 C)
Windchill: 15 F (-9 C):1
Dew Point: 17 F (-8 C)
Relative Humidity: 63%
Pressure (altimeter): 30.23 in. Hg (1023 hPa)
ob: KMPZ 301655Z AUTO 29014G26KT 10SM CLR M02/M08 A3023 RMK AO2
cycle: 17

Station Type Date Time Source
KMPZ TAF UTC NOAA

Error!

Example: see airport list